createdAt,value
2018-06-10T00:00:34.425Z,84.36
2018-06-10T00:03:05.571Z,84.30
2018-06-10T00:05:36.732Z,83.22
2018-06-10T00:08:07.644Z,82.24
2018-06-10T00:10:38.706Z,81.63
2018-06-10T00:13:10.187Z,81.12
2018-06-10T00:15:41.374Z,81.82
2018-06-10T00:18:12.272Z,81.82
2018-06-10T00:20:43.173Z,82.29
2018-06-10T00:23:14.855Z,83.17
2018-06-10T00:25:46.042Z,82.99
2018-06-10T00:28:21.658Z,82.87
2018-06-10T00:30:52.829Z,83.50
2018-06-10T00:33:24.298Z,82.64
2018-06-10T00:35:55.107Z,82.08
2018-06-10T00:38:25.994Z,82.50
2018-06-10T00:40:57.119Z,82.35
2018-06-10T00:43:28.047Z,82.34
2018-06-10T00:45:59.094Z,82.61
2018-06-10T00:48:30.173Z,83.56
2018-06-10T00:51:01.194Z,84.13
2018-06-10T00:53:32.314Z,85.31
2018-06-10T00:56:14.812Z,85.39
2018-06-10T00:58:45.732Z,85.95
2018-06-10T01:01:16.864Z,86.09
2018-06-10T01:03:47.801Z,85.96
2018-06-10T01:06:18.751Z,86.46
2018-06-10T01:08:49.899Z,86.39
2018-06-10T01:11:20.914Z,86.58
2018-06-10T01:13:52.040Z,87.07
2018-06-10T01:16:23.480Z,87.08
2018-06-10T01:18:55.024Z,88.13
2018-06-10T01:21:26.959Z,87.91
2018-06-10T01:23:58.020Z,87.85
2018-06-10T01:26:33.929Z,86.88
2018-06-10T01:29:05.787Z,86.57
2018-06-10T01:31:36.768Z,86.21
2018-06-10T01:34:08.256Z,86.58
2018-06-10T01:36:38.685Z,86.75
2018-06-10T01:39:09.759Z,86.69
2018-06-10T01:41:40.774Z,87.02
2018-06-10T01:44:11.725Z,87.30
2018-06-10T01:46:42.634Z,87.05
2018-06-10T01:49:13.794Z,87.58
2018-06-10T01:51:44.784Z,87.57
2018-06-10T01:54:15.857Z,87.80
2018-06-10T01:56:46.856Z,88.09
2018-06-10T01:59:17.704Z,87.99
2018-06-10T02:01:48.684Z,88.29
2018-06-10T02:04:19.083Z,88.08
2018-06-10T02:06:49.956Z,87.97
2018-06-10T02:09:21.056Z,87.51
2018-06-10T02:11:52.011Z,87.58
2018-06-10T02:14:23.421Z,88.11
2018-06-10T02:16:54.559Z,88.15
2018-06-10T02:19:26.155Z,87.84
2018-06-10T02:21:57.187Z,87.88
2018-06-10T02:24:28.223Z,87.58
2018-06-10T02:26:59.183Z,87.80
2018-06-10T02:29:30.239Z,88.28
2018-06-10T02:32:01.201Z,87.93
2018-06-10T02:34:32.475Z,86.90
2018-06-10T02:37:03.605Z,86.49
2018-06-10T02:39:35.270Z,86.24
2018-06-10T02:42:06.372Z,85.95
2018-06-10T02:44:38.108Z,86.30
2018-06-10T02:47:09.161Z,86.26
2018-06-10T02:49:41.389Z,86.92
2018-06-10T02:52:12.640Z,87.09
2018-06-10T02:54:43.795Z,87.41
2018-06-10T02:57:14.851Z,87.37
2018-06-10T02:59:45.850Z,87.62
2018-06-10T03:02:17.202Z,87.71
2018-06-10T03:04:48.428Z,87.52
2018-06-10T03:07:19.492Z,88.48
2018-06-10T03:09:51.649Z,88.72
2018-06-10T03:12:23.134Z,88.20
2018-06-10T03:14:54.232Z,88.36
2018-06-10T03:17:25.452Z,88.91
2018-06-10T03:19:56.639Z,89.04
2018-06-10T03:22:27.633Z,89.63
2018-06-10T03:24:58.034Z,89.39
2018-06-10T03:27:28.912Z,89.17
2018-06-10T03:30:00.292Z,89.37
2018-06-10T03:32:31.178Z,89.32
2018-06-10T03:35:02.106Z,89.00
2018-06-10T03:37:33.175Z,88.59
2018-06-10T03:40:03.484Z,87.92
2018-06-10T03:42:34.852Z,87.21
2018-06-10T03:45:05.894Z,87.13
2018-06-10T03:47:37.016Z,87.52
2018-06-10T03:50:08.255Z,86.95
2018-06-10T03:52:39.602Z,87.21
2018-06-10T03:55:10.604Z,87.36
2018-06-10T03:57:41.203Z,87.69
2018-06-10T04:00:12.141Z,87.59
2018-06-10T04:02:43.222Z,87.32
2018-06-10T04:05:14.267Z,87.57
2018-06-10T04:07:45.136Z,87.62
2018-06-10T04:10:16.236Z,87.76
2018-06-10T04:12:47.319Z,87.41
2018-06-10T04:15:17.774Z,87.26
2018-06-10T04:17:48.937Z,87.18
2018-06-10T04:20:19.996Z,87.20
2018-06-10T04:22:50.771Z,87.20
2018-06-10T04:25:22.610Z,86.74
2018-06-10T04:27:53.469Z,86.81
2018-06-10T04:30:24.787Z,86.32
2018-06-10T04:32:56.358Z,86.64
2018-06-10T04:35:28.355Z,86.05
2018-06-10T04:37:59.400Z,86.47
2018-06-10T04:40:30.584Z,86.18
2018-06-10T04:43:01.877Z,85.46
2018-06-10T04:45:34.000Z,85.15
2018-06-10T04:48:05.450Z,85.13
2018-06-10T04:50:37.129Z,84.58
2018-06-10T04:53:08.713Z,84.76
2018-06-10T04:55:39.967Z,84.33
2018-06-10T04:58:11.207Z,83.91
2018-06-10T05:00:42.485Z,83.41
2018-06-10T05:03:13.767Z,82.81
2018-06-10T05:05:44.791Z,82.21
2018-06-10T05:08:16.621Z,82.37
2018-06-10T05:10:47.706Z,81.60
2018-06-10T05:13:18.917Z,81.36
2018-06-10T05:15:50.073Z,81.05
2018-06-10T05:18:21.264Z,80.61
2018-06-10T05:20:52.431Z,80.87
2018-06-10T05:23:24.489Z,80.51
2018-06-10T05:25:55.709Z,80.35
2018-06-10T05:28:27.732Z,79.91
2018-06-10T05:30:59.082Z,80.15
2018-06-10T05:33:30.319Z,80.09
2018-06-10T05:36:02.639Z,79.74
2018-06-10T05:38:33.661Z,79.73
2018-06-10T05:41:04.880Z,78.73
2018-06-10T05:43:36.059Z,78.12
2018-06-10T05:46:07.406Z,77.28
2018-06-10T05:48:38.554Z,76.33
2018-06-10T05:51:10.397Z,75.84
2018-06-10T05:53:41.892Z,75.41
2018-06-10T05:56:13.800Z,74.04
2018-06-10T05:58:44.853Z,73.63
2018-06-10T06:01:17.009Z,73.59
2018-06-10T06:03:48.728Z,72.95
2018-06-10T06:06:20.659Z,72.58
2018-06-10T06:08:52.380Z,71.79
2018-06-10T06:11:24.355Z,71.35
2018-06-10T06:13:55.387Z,71.24
2018-06-10T06:16:26.577Z,71.25
2018-06-10T06:18:59.042Z,67.46
2018-06-10T06:21:30.386Z,62.93
2018-06-10T06:24:02.547Z,59.43
2018-06-10T06:26:34.224Z,56.25
2018-06-10T06:29:05.368Z,54.21
2018-06-10T06:31:37.654Z,52.59
2018-06-10T06:34:11.229Z,50.23
2018-06-10T06:36:42.437Z,48.22
2018-06-10T06:39:13.723Z,47.64
2018-06-10T06:41:44.889Z,46.52
2018-06-10T06:44:16.846Z,46.35
2018-06-10T06:46:48.098Z,45.27
2018-06-10T06:49:20.475Z,44.23
2018-06-10T06:51:51.569Z,43.96
2018-06-10T06:54:22.998Z,44.22
2018-06-10T06:56:55.104Z,44.34
2018-06-10T06:59:26.763Z,42.74
2018-06-10T07:01:57.539Z,43.29
2018-06-10T07:04:30.598Z,45.11
2018-06-10T07:07:02.193Z,44.28
2018-06-10T07:09:32.787Z,41.37
2018-06-10T07:12:04.097Z,41.01
2018-06-10T07:14:35.710Z,40.12
2018-06-10T07:17:07.454Z,39.93
2018-06-10T07:19:38.979Z,40.89
2018-06-10T07:22:10.845Z,43.02
2018-06-10T07:24:42.101Z,44.87
2018-06-10T07:27:13.589Z,45.96
2018-06-10T07:29:44.957Z,43.29
2018-06-10T07:32:16.900Z,40.29
2018-06-10T07:34:48.329Z,40.48
2018-06-10T07:37:20.686Z,42.99
2018-06-10T07:39:52.132Z,40.45
2018-06-10T07:42:23.380Z,38.61
2018-06-10T07:44:54.532Z,36.13
2018-06-10T07:47:26.608Z,37.44
2018-06-10T07:49:57.130Z,38.70
2018-06-10T07:52:29.509Z,39.71
2018-06-10T07:55:01.589Z,40.67
2018-06-10T07:57:32.707Z,36.25
2018-06-10T08:00:03.436Z,34.99
2018-06-10T08:02:34.909Z,34.14
2018-06-10T08:05:07.180Z,33.18
2018-06-10T08:07:38.776Z,33.17
2018-06-10T08:10:10.249Z,32.25
2018-06-10T08:12:41.092Z,31.75
2018-06-10T08:15:13.418Z,30.76
2018-06-10T08:17:45.923Z,30.85
2018-06-10T08:20:17.259Z,28.18
2018-06-10T08:22:50.483Z,30.81
2018-06-10T08:25:21.852Z,28.44
2018-06-10T08:27:53.125Z,28.39
2018-06-10T08:30:24.637Z,27.20
2018-06-10T08:32:56.038Z,25.27
2018-06-10T08:35:27.573Z,26.17
2018-06-10T08:37:58.918Z,26.02
2018-06-10T08:40:30.684Z,25.19
2018-06-10T08:43:02.172Z,24.50
2018-06-10T08:45:33.413Z,24.21
2018-06-10T08:48:05.000Z,25.60
2018-06-10T08:50:36.168Z,26.42
2018-06-10T08:53:07.168Z,24.43
2018-06-10T08:55:38.792Z,25.00
2018-06-10T08:58:11.035Z,25.33
2018-06-10T09:00:42.161Z,24.35
2018-06-10T09:03:13.604Z,24.75
2018-06-10T09:05:44.719Z,23.99
2018-06-10T09:08:16.046Z,23.99
2018-06-10T09:10:47.155Z,24.44
2018-06-10T09:13:18.358Z,24.52
2018-06-10T09:15:49.658Z,24.25
2018-06-10T09:18:21.291Z,24.49
2018-06-10T09:20:54.045Z,23.38
2018-06-10T09:23:25.605Z,23.52
2018-06-10T09:25:56.907Z,23.86
2018-06-10T09:28:27.450Z,24.04
2018-06-10T09:30:58.222Z,23.97
2018-06-10T09:33:29.340Z,23.53
2018-06-10T09:36:00.767Z,23.01
2018-06-10T09:38:31.763Z,22.79
2018-06-10T09:41:02.288Z,23.16
2018-06-10T09:43:33.081Z,23.67
2018-06-10T09:46:03.797Z,22.80
2018-06-10T09:48:34.863Z,23.50
2018-06-10T09:51:06.424Z,22.53
2018-06-10T09:53:37.292Z,22.95
2018-06-10T09:56:08.545Z,23.57
2018-06-10T09:58:40.407Z,26.91
2018-06-10T10:01:12.086Z,25.61
2018-06-10T10:03:43.348Z,25.26
2018-06-10T10:06:14.517Z,26.80
2018-06-10T10:08:46.813Z,28.32
2018-06-10T10:11:18.068Z,26.49
2018-06-10T10:13:49.493Z,24.60
2018-06-10T10:16:22.255Z,23.53
2018-06-10T10:18:53.471Z,23.44
2018-06-10T10:21:24.821Z,22.65
2018-06-10T10:23:56.791Z,21.26
2018-06-10T10:26:29.858Z,21.90
2018-06-10T10:29:00.981Z,21.73
2018-06-10T10:31:33.334Z,20.71
2018-06-10T10:34:05.093Z,22.32
2018-06-10T10:36:36.938Z,22.11
2018-06-10T10:39:09.791Z,21.42
2018-06-10T10:41:41.205Z,22.27
2018-06-10T10:44:13.466Z,21.40
2018-06-10T10:46:44.695Z,21.59
2018-06-10T10:49:16.966Z,21.44
2018-06-10T10:51:48.435Z,22.22
2018-06-10T10:54:19.495Z,22.20
2018-06-10T10:56:50.708Z,23.03
2018-06-10T10:59:21.947Z,22.02
2018-06-10T11:01:53.533Z,22.71
2018-06-10T11:04:26.160Z,21.83
2018-06-10T11:06:57.378Z,22.24
2018-06-10T11:09:28.324Z,22.16
2018-06-10T11:12:03.718Z,23.01
2018-06-10T11:14:34.927Z,23.29
2018-06-10T11:17:07.244Z,22.41
2018-06-10T11:19:38.932Z,22.35
2018-06-10T11:22:10.199Z,22.76
2018-06-10T11:24:41.629Z,22.74
2018-06-10T11:27:13.163Z,22.85
2018-06-10T11:29:44.633Z,22.52
2018-06-10T11:32:15.815Z,22.34
2018-06-10T11:34:47.932Z,22.33
2018-06-10T11:37:19.128Z,21.84
2018-06-10T11:39:50.406Z,23.10
2018-06-10T11:42:22.504Z,24.80
2018-06-10T11:44:54.369Z,23.33
2018-06-10T11:47:26.315Z,23.91
2018-06-10T11:49:57.653Z,23.19
2018-06-10T11:52:29.236Z,23.78
2018-06-10T11:55:00.682Z,24.50
2018-06-10T11:57:31.811Z,25.57
2018-06-10T12:00:03.124Z,24.09
2018-06-10T12:02:34.760Z,22.48
2018-06-10T12:05:05.913Z,24.08
2018-06-10T12:07:37.703Z,23.28
2018-06-10T12:10:09.705Z,22.78
2018-06-10T12:12:40.840Z,24.03
2018-06-10T12:15:12.329Z,25.24
2018-06-10T12:17:44.856Z,25.44
2018-06-10T12:20:16.936Z,26.67
2018-06-10T12:22:48.587Z,28.87
2018-06-10T12:25:21.836Z,27.39
2018-06-10T12:27:53.393Z,27.29
2018-06-10T12:30:24.721Z,27.39
2018-06-10T12:32:56.837Z,26.12
2018-06-10T12:35:28.796Z,23.92
2018-06-10T12:38:00.396Z,25.05
2018-06-10T12:40:31.766Z,24.58
2018-06-10T12:43:04.232Z,24.97
2018-06-10T12:45:35.424Z,28.17
2018-06-10T12:48:06.890Z,28.58
2018-06-10T12:50:38.090Z,27.19
2018-06-10T12:53:09.324Z,27.65
2018-06-10T12:55:41.922Z,27.39
2018-06-10T12:58:17.101Z,25.28
2018-06-10T13:00:50.664Z,24.85
2018-06-10T13:03:21.681Z,25.17
2018-06-10T13:05:54.259Z,25.06
2018-06-10T13:08:25.904Z,25.36
2018-06-10T13:10:57.619Z,24.15
2018-06-10T13:13:31.815Z,23.87
2018-06-10T13:16:04.608Z,23.57
2018-06-10T13:18:36.874Z,26.08
2018-06-10T13:21:08.632Z,27.45
2018-06-10T13:23:40.181Z,25.82
2018-06-10T13:26:13.189Z,24.41
2018-06-10T13:28:45.765Z,24.63
2018-06-10T13:31:17.253Z,25.13
2018-06-10T13:33:50.030Z,25.63
2018-06-10T13:36:21.477Z,25.22
2018-06-10T13:38:53.616Z,24.06
2018-06-10T13:41:25.305Z,24.68
2018-06-10T13:43:57.153Z,23.72
2018-06-10T13:46:28.978Z,24.15
2018-06-10T13:49:03.281Z,24.40
2018-06-10T13:51:36.734Z,24.13
2018-06-10T13:54:09.529Z,24.25
2018-06-10T13:56:40.963Z,23.95
2018-06-10T13:59:12.900Z,23.59
2018-06-10T14:01:44.720Z,22.91
2018-06-10T14:04:16.121Z,24.44
2018-06-10T14:06:47.383Z,24.66
2018-06-10T14:09:18.599Z,25.23
2018-06-10T14:11:50.768Z,25.18
2018-06-10T14:14:22.103Z,25.09
2018-06-10T14:16:54.143Z,24.37
2018-06-10T14:19:25.413Z,24.75
2018-06-10T14:21:57.634Z,24.24
2018-06-10T14:24:30.007Z,24.93
2018-06-10T14:27:01.224Z,29.12
2018-06-10T14:29:33.584Z,28.02
2018-06-10T14:32:06.019Z,26.81
2018-06-10T14:34:39.225Z,26.09
2018-06-10T14:37:11.807Z,26.06
2018-06-10T14:39:44.312Z,29.98
2018-06-10T14:42:16.550Z,28.05
2018-06-10T14:44:48.895Z,28.53
2018-06-10T14:47:21.636Z,30.54
2018-06-10T14:49:53.748Z,29.08
2018-06-10T14:52:25.557Z,29.78
2018-06-10T14:54:56.167Z,28.54
2018-06-10T14:57:27.275Z,30.30
2018-06-10T14:59:58.869Z,31.44
2018-06-10T15:02:30.093Z,33.18
2018-06-10T15:05:02.656Z,32.05
2018-06-10T15:07:35.757Z,33.77
2018-06-10T15:10:07.917Z,33.43
2018-06-10T15:12:39.913Z,32.63
2018-06-10T15:15:11.659Z,32.37
2018-06-10T15:17:43.545Z,32.52
2018-06-10T15:20:16.080Z,32.79
2018-06-10T15:22:50.954Z,31.17
2018-06-10T15:25:23.501Z,33.72
2018-06-10T15:27:56.224Z,35.53
2018-06-10T15:30:30.260Z,33.93
2018-06-10T15:33:02.792Z,34.79
2018-06-10T15:35:35.696Z,35.37
2018-06-10T15:38:06.936Z,37.17
2018-06-10T15:40:39.588Z,36.07
2018-06-10T15:43:11.468Z,35.21
2018-06-10T15:45:42.628Z,36.29
2018-06-10T15:48:13.985Z,35.95
2018-06-10T15:50:46.579Z,36.98
2018-06-10T15:53:17.612Z,37.48
2018-06-10T15:55:48.687Z,35.62
2018-06-10T15:58:19.814Z,35.82
2018-06-10T16:00:50.926Z,35.38
2018-06-10T16:03:21.989Z,36.56
2018-06-10T16:05:53.866Z,36.73
2018-06-10T16:08:25.076Z,35.65
2018-06-10T16:10:57.949Z,35.38
2018-06-10T16:13:29.806Z,35.73
2018-06-10T16:16:00.934Z,35.22
2018-06-10T16:18:32.235Z,35.54
2018-06-10T16:21:03.500Z,35.49
2018-06-10T16:23:34.767Z,35.82
2018-06-10T16:26:07.786Z,35.95
2018-06-10T16:28:39.704Z,36.05
2018-06-10T16:31:10.867Z,36.72
2018-06-10T16:33:42.688Z,36.10
2018-06-10T16:36:14.729Z,36.41
2018-06-10T16:38:46.073Z,36.31
2018-06-10T16:41:18.192Z,37.08
2018-06-10T16:43:49.525Z,38.84
2018-06-10T16:46:21.036Z,38.84
2018-06-10T16:48:52.270Z,41.18
2018-06-10T16:51:24.005Z,40.16
2018-06-10T16:53:56.112Z,42.04
2018-06-10T16:56:27.401Z,42.56
2018-06-10T16:58:58.654Z,42.25
2018-06-10T17:01:29.796Z,43.02
2018-06-10T17:04:02.247Z,42.79
2018-06-10T17:06:33.634Z,43.21
2018-06-10T17:09:08.071Z,42.82
2018-06-10T17:11:39.440Z,44.30
2018-06-10T17:14:10.549Z,45.34
2018-06-10T17:16:41.190Z,44.60
2018-06-10T17:19:12.328Z,45.04
2018-06-10T17:21:43.771Z,45.96
2018-06-10T17:24:14.969Z,46.29
2018-06-10T17:26:46.266Z,46.33
2018-06-10T17:29:17.617Z,47.76
2018-06-10T17:31:49.055Z,48.71
2018-06-10T17:34:21.435Z,48.46
2018-06-10T17:36:55.143Z,48.94
2018-06-10T17:39:27.261Z,48.31
2018-06-10T17:41:59.378Z,49.75
2018-06-10T17:44:31.519Z,48.90
2018-06-10T17:47:02.846Z,49.34
2018-06-10T17:49:33.401Z,48.89
2018-06-10T17:52:04.016Z,49.08
2018-06-10T17:54:35.714Z,46.94
2018-06-10T17:57:09.260Z,47.97
2018-06-10T17:59:41.955Z,48.56
2018-06-10T18:02:15.500Z,47.85
2018-06-10T18:04:48.732Z,48.24
2018-06-10T18:07:24.804Z,48.49
2018-06-10T18:09:57.497Z,49.28
2018-06-10T18:12:28.898Z,49.34
2018-06-10T18:15:01.353Z,49.53
2018-06-10T18:17:33.781Z,49.54
2018-06-10T18:20:06.066Z,49.73
2018-06-10T18:22:37.259Z,50.31
2018-06-10T18:25:08.413Z,49.69
2018-06-10T18:27:39.580Z,50.76
2018-06-10T18:30:10.918Z,50.89
2018-06-10T18:32:51.693Z,51.78
2018-06-10T18:35:22.876Z,52.04
2018-06-10T18:37:54.198Z,52.85
2018-06-10T18:40:26.696Z,53.27
2018-06-10T18:42:58.460Z,55.37
2018-06-10T18:45:29.460Z,55.76
2018-06-10T18:48:01.173Z,56.59
2018-06-10T18:50:32.526Z,57.21
2018-06-10T18:53:03.889Z,57.18
2018-06-10T18:55:35.262Z,58.00
2018-06-10T18:58:06.528Z,58.85
2018-06-10T19:00:37.611Z,58.39
2018-06-10T19:03:10.693Z,58.87
2018-06-10T19:05:41.667Z,59.20
2018-06-10T19:08:12.710Z,59.85
2018-06-10T19:10:43.910Z,60.86
2018-06-10T19:13:16.632Z,60.88
2018-06-10T19:15:47.671Z,61.12
2018-06-10T19:18:19.272Z,61.66
2018-06-10T19:20:49.697Z,60.65
2018-06-10T19:23:21.461Z,60.30
2018-06-10T19:25:52.733Z,60.81
2018-06-10T19:28:24.024Z,60.47
2018-06-10T19:30:55.598Z,60.67
2018-06-10T19:33:26.663Z,62.05
2018-06-10T19:35:57.570Z,63.32
2018-06-10T19:38:28.930Z,63.73
2018-06-10T19:41:01.285Z,64.76
2018-06-10T19:43:33.134Z,63.69
2018-06-10T19:46:04.594Z,64.18
2018-06-10T19:48:36.275Z,63.66
2018-06-10T19:51:07.581Z,63.88
2018-06-10T19:53:39.195Z,62.12
2018-06-10T19:56:10.765Z,63.18
2018-06-10T19:58:42.662Z,64.88
2018-06-10T20:01:14.772Z,67.45
2018-06-10T20:03:46.419Z,67.97
2018-06-10T20:06:18.094Z,67.79
2018-06-10T20:08:50.543Z,66.32
2018-06-10T20:11:21.822Z,66.97
2018-06-10T20:13:53.116Z,69.15
2018-06-10T20:16:24.600Z,70.75
2018-06-10T20:18:56.770Z,68.27
2018-06-10T20:21:28.397Z,67.95
2018-06-10T20:23:59.976Z,67.17
2018-06-10T20:26:31.532Z,67.59
2018-06-10T20:29:03.164Z,67.82
2018-06-10T20:31:34.488Z,67.61
2018-06-10T20:34:06.812Z,68.12
2018-06-10T20:36:38.750Z,68.80
2018-06-10T20:39:10.363Z,68.68
2018-06-10T20:41:42.132Z,68.76
2018-06-10T20:44:14.079Z,69.02
2018-06-10T20:46:45.633Z,68.90
2018-06-10T20:49:19.922Z,68.85
2018-06-10T20:51:51.058Z,69.20
2018-06-10T20:54:22.828Z,69.66
2018-06-10T20:56:54.542Z,69.35
2018-06-10T20:59:26.140Z,69.87
2018-06-10T21:01:57.574Z,70.77
2018-06-10T21:04:29.212Z,71.17
2018-06-10T21:07:00.945Z,70.87
2018-06-10T21:09:32.468Z,70.54
2018-06-10T21:12:04.569Z,71.04
2018-06-10T21:14:35.958Z,70.96
2018-06-10T21:17:07.719Z,71.51
2018-06-10T21:19:39.977Z,71.85
2018-06-10T21:22:12.032Z,71.76
2018-06-10T21:24:44.006Z,72.02
2018-06-10T21:27:15.754Z,72.34
2018-06-10T21:29:47.210Z,72.10
2018-06-10T21:32:18.639Z,72.28
2018-06-10T21:34:50.122Z,72.65
2018-06-10T21:37:21.504Z,72.60
2018-06-10T21:39:53.540Z,72.94
2018-06-10T21:42:25.118Z,72.99
2018-06-10T21:44:56.294Z,73.16
2018-06-10T21:47:27.758Z,73.17
2018-06-10T21:49:59.223Z,74.14
2018-06-10T21:52:31.073Z,74.18
2018-06-10T21:55:03.341Z,74.97
2018-06-10T21:57:35.025Z,75.78
2018-06-10T22:00:08.938Z,76.16
2018-06-10T22:02:40.592Z,76.14
2018-06-10T22:05:12.147Z,76.57
2018-06-10T22:07:43.642Z,76.64
2018-06-10T22:10:14.766Z,76.11
2018-06-10T22:12:45.991Z,75.26
2018-06-10T22:15:17.355Z,74.10
2018-06-10T22:17:48.838Z,73.88
2018-06-10T22:20:20.349Z,73.50
2018-06-10T22:22:51.921Z,74.10
2018-06-10T22:25:23.118Z,74.18
2018-06-10T22:27:54.927Z,74.27
2018-06-10T22:30:25.733Z,74.58
2018-06-10T22:32:57.782Z,75.50
2018-06-10T22:35:29.135Z,75.06
2018-06-10T22:38:00.626Z,73.59
2018-06-10T22:40:32.952Z,73.75
2018-06-10T22:43:05.408Z,75.43
2018-06-10T22:45:36.739Z,77.89
2018-06-10T22:48:08.023Z,79.59
2018-06-10T22:50:39.391Z,79.42
2018-06-10T22:54:18.389Z,77.25
2018-06-10T22:56:50.669Z,76.36
2018-06-10T22:59:22.584Z,76.62
2018-06-10T23:01:54.112Z,76.91
2018-06-10T23:04:25.292Z,77.18
2018-06-10T23:06:56.521Z,76.88
2018-06-10T23:09:27.952Z,77.50
2018-06-10T23:12:00.111Z,76.88
2018-06-10T23:14:31.393Z,76.93
2018-06-10T23:17:02.716Z,76.90
2018-06-10T23:19:34.002Z,76.85
2018-06-10T23:22:05.209Z,77.50
2018-06-10T23:24:36.431Z,77.97
2018-06-10T23:27:07.602Z,77.98
2018-06-10T23:29:38.873Z,77.65
2018-06-10T23:32:10.741Z,77.80
2018-06-10T23:34:42.345Z,76.89
2018-06-10T23:37:13.657Z,76.51
2018-06-10T23:39:44.677Z,76.90
2018-06-10T23:42:16.200Z,77.08
2018-06-10T23:44:47.680Z,78.91
2018-06-10T23:47:19.659Z,80.05
2018-06-10T23:49:50.839Z,79.84
2018-06-10T23:52:22.003Z,80.73
2018-06-10T23:54:53.139Z,81.46
2018-06-10T23:57:25.116Z,79.51
2018-06-10T23:59:56.203Z,78.49
